createdAt,value
2022-12-26T00:01:01.775Z,19.65
2022-12-26T00:06:14.088Z,19.77
2022-12-26T00:11:17.188Z,17.35
2022-12-26T00:16:21.167Z,18.23
2022-12-26T00:21:27.690Z,19.95
2022-12-26T00:26:31.891Z,18.65
2022-12-26T00:31:34.870Z,16.33
2022-12-26T00:36:37.326Z,16.60
2022-12-26T00:41:39.911Z,15.73
2022-12-26T00:46:42.357Z,14.65
2022-12-26T00:51:46.566Z,15.52
2022-12-26T00:56:49.032Z,14.52
2022-12-26T01:01:51.708Z,23.63
2022-12-26T01:06:54.276Z,39.83
2022-12-26T01:11:56.640Z,37.65
2022-12-26T01:16:59.845Z,21.40
2022-12-26T01:22:02.307Z,15.27
2022-12-26T01:27:04.683Z,12.75
2022-12-26T01:32:07.846Z,13.10
2022-12-26T01:37:13.141Z,13.23
2022-12-26T01:42:21.012Z,13.32
2022-12-26T01:47:25.020Z,12.02
2022-12-26T01:52:38.910Z,13.40
2022-12-26T01:57:43.867Z,12.95
2022-12-26T02:03:10.826Z,14.63
2022-12-26T02:08:27.049Z,15.63
2022-12-26T02:13:30.025Z,12.82
2022-12-26T02:18:32.626Z,12.57
2022-12-26T02:24:08.149Z,13.25
2022-12-26T02:29:58.434Z,12.13
2022-12-26T02:35:33.262Z,12.63
2022-12-26T02:41:01.296Z,11.65
2022-12-26T02:46:37.460Z,10.88
2022-12-26T02:52:04.765Z,11.05
2022-12-26T02:57:27.888Z,11.48
2022-12-26T03:02:55.412Z,10.38
2022-12-26T03:08:17.286Z,10.20
2022-12-26T03:13:24.942Z,9.50
2022-12-26T03:19:00.089Z,9.82
2022-12-26T03:23:52.447Z,10.00
2022-12-26T03:29:18.837Z,9.68
2022-12-26T03:34:24.297Z,9.70
2022-12-26T03:39:58.906Z,9.95
2022-12-26T03:45:29.463Z,9.30
2022-12-26T03:50:54.696Z,9.73
2022-12-26T03:56:23.998Z,10.23
2022-12-26T04:01:47.802Z,9.85
2022-12-26T04:07:18.031Z,9.73
2022-12-26T04:12:41.749Z,9.57
2022-12-26T04:18:18.491Z,8.43
2022-12-26T04:23:57.777Z,6.50
2022-12-26T04:29:18.727Z,7.22
2022-12-26T04:34:53.146Z,15.65
2022-12-26T04:40:15.265Z,14.82
2022-12-26T04:45:18.150Z,15.68
2022-12-26T04:50:23.078Z,21.65
2022-12-26T04:55:35.966Z,21.25
2022-12-26T05:00:39.680Z,17.58
2022-12-26T05:06:03.051Z,13.02
2022-12-26T05:11:06.940Z,10.63
2022-12-26T05:16:28.396Z,11.82
2022-12-26T05:21:49.473Z,10.77
2022-12-26T05:27:10.423Z,10.43
2022-12-26T05:32:13.837Z,9.00
2022-12-26T05:37:16.230Z,8.80
2022-12-26T05:42:18.587Z,12.00
2022-12-26T05:47:20.991Z,12.85
2022-12-26T05:52:23.386Z,13.70
2022-12-26T05:57:25.832Z,11.25
2022-12-26T06:02:29.714Z,11.15
2022-12-26T06:07:32.451Z,8.82
2022-12-26T06:12:35.546Z,8.20
2022-12-26T06:17:37.923Z,10.65
2022-12-26T06:22:40.309Z,10.25
2022-12-26T06:27:43.907Z,12.40
2022-12-26T06:37:48.615Z,9.70
2022-12-26T06:42:52.106Z,9.65
2022-12-26T06:47:54.598Z,8.90
2022-12-26T06:52:56.892Z,9.52
2022-12-26T06:57:59.360Z,13.05
2022-12-26T07:03:01.789Z,7.38
2022-12-26T07:08:05.308Z,8.07
2022-12-26T07:13:07.691Z,8.63
2022-12-26T07:18:10.082Z,7.85
2022-12-26T07:23:12.491Z,7.05
2022-12-26T07:28:15.771Z,5.57
2022-12-26T07:33:18.321Z,5.88
2022-12-26T07:38:20.865Z,5.50
2022-12-26T07:43:23.926Z,5.53
2022-12-26T07:48:26.309Z,6.38
2022-12-26T07:53:29.733Z,6.25
2022-12-26T07:58:32.075Z,5.97
2022-12-26T08:03:35.226Z,4.93
2022-12-26T08:08:38.008Z,6.38
2022-12-26T08:13:40.396Z,6.20
2022-12-26T08:18:43.375Z,8.07
2022-12-26T08:23:49.361Z,5.95
2022-12-26T08:28:52.367Z,6.80
2022-12-26T08:33:57.260Z,6.75
2022-12-26T08:38:59.974Z,5.30
2022-12-26T08:49:25.964Z,5.63
2022-12-26T08:54:28.669Z,6.68
2022-12-26T08:59:32.693Z,7.40
2022-12-26T09:04:37.477Z,5.65
2022-12-26T09:09:40.229Z,9.43
2022-12-26T09:14:43.150Z,8.30
2022-12-26T09:19:45.567Z,9.10
2022-12-26T09:24:48.626Z,9.15
2022-12-26T09:29:51.068Z,11.98
2022-12-26T09:34:53.500Z,12.95
2022-12-26T09:40:07.593Z,16.20
2022-12-26T09:45:18.984Z,13.02
2022-12-26T09:50:30.073Z,16.35
2022-12-26T09:55:53.208Z,12.82
2022-12-26T10:01:15.843Z,7.50
2022-12-26T10:06:23.646Z,5.43
2022-12-26T10:11:35.085Z,10.73
2022-12-26T10:16:59.016Z,7.15
2022-12-26T10:22:16.600Z,5.78
2022-12-26T10:27:19.935Z,7.15
2022-12-26T10:32:31.055Z,6.82
2022-12-26T10:37:37.242Z,6.97
2022-12-26T10:42:42.648Z,10.77
2022-12-26T10:47:47.240Z,10.00
2022-12-26T10:52:50.408Z,7.65
2022-12-26T10:57:53.438Z,9.77
2022-12-26T11:03:11.439Z,13.10
2022-12-26T11:08:43.031Z,10.15
2022-12-26T11:13:47.600Z,8.93
2022-12-26T11:24:14.939Z,16.95
2022-12-26T11:29:20.760Z,12.23
2022-12-26T11:34:48.376Z,8.65
2022-12-26T11:39:51.730Z,6.53
2022-12-26T11:44:55.699Z,8.07
2022-12-26T11:50:10.454Z,10.35
2022-12-26T11:55:27.261Z,16.48
2022-12-26T12:00:30.158Z,23.25
2022-12-26T12:05:47.192Z,17.97
2022-12-26T12:11:18.033Z,10.85
2022-12-26T12:16:46.545Z,8.63
2022-12-26T12:21:58.015Z,8.32
2022-12-26T12:27:05.614Z,6.95
2022-12-26T12:32:18.800Z,8.38
2022-12-26T12:37:49.544Z,8.23
2022-12-26T12:43:03.978Z,8.48
2022-12-26T12:48:20.826Z,9.70
2022-12-26T12:54:02.996Z,10.02
2022-12-26T12:59:14.545Z,5.88
2022-12-26T13:04:28.943Z,6.85
2022-12-26T13:09:45.328Z,10.48
2022-12-26T13:15:01.820Z,9.02
2022-12-26T13:20:15.906Z,7.95
2022-12-26T13:25:19.063Z,6.50
2022-12-26T13:30:21.881Z,8.07
2022-12-26T13:36:03.054Z,8.07
2022-12-26T13:41:24.862Z,7.97
2022-12-26T13:46:54.546Z,6.68
2022-12-26T13:52:24.166Z,6.32
2022-12-26T13:57:45.046Z,9.20
2022-12-26T14:03:26.905Z,8.30
2022-12-26T14:08:55.379Z,6.70
2022-12-26T14:14:07.162Z,9.05
2022-12-26T14:24:35.301Z,17.83
2022-12-26T14:29:43.723Z,26.00
2022-12-26T14:35:05.775Z,12.60
2022-12-26T14:40:20.922Z,14.88
2022-12-26T14:45:29.727Z,12.60
2022-12-26T14:50:32.461Z,12.60
2022-12-26T14:55:51.449Z,13.57
2022-12-26T15:00:55.029Z,16.75
2022-12-26T15:06:19.197Z,26.75
2022-12-26T15:11:49.994Z,20.90
2022-12-26T15:17:03.068Z,17.42
2022-12-26T15:22:35.887Z,13.32
2022-12-26T15:27:53.546Z,16.42
2022-12-26T15:32:55.845Z,12.25
2022-12-26T15:38:20.391Z,9.43
2022-12-26T15:43:39.907Z,7.80
2022-12-26T15:49:02.826Z,7.75
2022-12-26T15:54:18.419Z,12.37
2022-12-26T15:59:35.908Z,11.90
2022-12-26T16:04:45.352Z,8.98
2022-12-26T16:09:53.332Z,7.00
2022-12-26T16:15:16.503Z,7.07
2022-12-26T16:20:50.919Z,7.78
2022-12-26T16:25:55.299Z,11.02
2022-12-26T16:30:57.903Z,10.98
2022-12-26T16:36:01.227Z,12.47
2022-12-26T16:41:19.711Z,12.57
2022-12-26T16:46:26.621Z,16.80
2022-12-26T16:51:49.854Z,16.23
2022-12-26T16:57:28.723Z,15.13
2022-12-26T17:02:33.667Z,14.93
2022-12-26T17:07:39.730Z,14.27
2022-12-26T17:12:42.363Z,13.63
2022-12-26T17:17:46.190Z,13.02
2022-12-26T17:22:58.274Z,14.80
2022-12-26T17:28:22.249Z,16.85
2022-12-26T17:38:30.247Z,25.33
2022-12-26T17:43:34.038Z,24.60
2022-12-26T17:48:36.422Z,19.00
2022-12-26T17:58:43.520Z,17.48
2022-12-26T18:03:46.425Z,17.02
2022-12-26T18:08:48.884Z,14.32
2022-12-26T18:13:52.398Z,13.07
2022-12-26T18:18:54.856Z,13.63
2022-12-26T18:23:57.320Z,15.40
2022-12-26T18:29:01.904Z,13.75
2022-12-26T18:34:04.651Z,10.02
2022-12-26T18:39:07.248Z,13.32
2022-12-26T18:44:10.561Z,12.43
2022-12-26T18:49:17.283Z,13.15
2022-12-26T18:54:19.892Z,15.30
2022-12-26T18:59:22.386Z,13.60
2022-12-26T19:04:25.006Z,14.10
2022-12-26T19:09:27.361Z,11.77
2022-12-26T19:14:30.117Z,19.67
2022-12-26T19:19:34.335Z,16.75
2022-12-26T19:24:37.104Z,13.90
2022-12-26T19:29:39.514Z,13.43
2022-12-26T19:34:41.904Z,11.77
2022-12-26T19:39:46.273Z,9.68
2022-12-26T19:44:49.357Z,8.07
2022-12-26T19:49:52.230Z,7.22
2022-12-26T19:54:56.417Z,7.85
2022-12-26T20:00:02.149Z,6.82
2022-12-26T20:05:18.307Z,6.13
2022-12-26T20:10:21.237Z,5.55
2022-12-26T20:15:23.827Z,7.40
2022-12-26T20:20:29.215Z,14.85
2022-12-26T20:25:31.969Z,7.20
2022-12-26T20:30:35.204Z,5.23
2022-12-26T20:35:37.783Z,4.65
2022-12-26T20:40:49.923Z,5.00
2022-12-26T20:45:54.158Z,5.22
2022-12-26T20:50:58.065Z,5.50
2022-12-26T20:56:01.209Z,5.63
2022-12-26T21:01:16.123Z,5.43
2022-12-26T21:06:21.491Z,6.00
2022-12-26T21:11:45.806Z,5.50
2022-12-26T21:16:50.142Z,6.30
2022-12-26T21:21:54.915Z,5.20
2022-12-26T21:27:02.481Z,3.75
2022-12-26T21:32:06.921Z,4.45
2022-12-26T21:37:31.216Z,4.22
2022-12-26T21:42:33.864Z,5.30
2022-12-26T21:47:36.518Z,7.00
2022-12-26T21:52:41.416Z,5.35
2022-12-26T21:57:44.947Z,5.93
2022-12-26T22:03:05.656Z,8.98
2022-12-26T22:08:11.551Z,9.10
2022-12-26T22:13:17.517Z,9.77
2022-12-26T22:18:23.686Z,8.82
2022-12-26T22:23:27.216Z,5.35
2022-12-26T22:28:30.661Z,7.80
2022-12-26T22:33:33.754Z,7.28
2022-12-26T22:38:37.570Z,4.90
2022-12-26T22:43:40.807Z,3.38
2022-12-26T22:48:43.228Z,5.65
2022-12-26T22:53:45.643Z,5.07
2022-12-26T22:58:48.129Z,2.80
2022-12-26T23:03:50.699Z,4.50
2022-12-26T23:08:55.081Z,2.45
2022-12-26T23:13:58.490Z,1.73
2022-12-26T23:19:22.997Z,1.83
2022-12-26T23:24:27.387Z,1.73
2022-12-26T23:29:48.424Z,2.63
2022-12-26T23:34:54.460Z,2.60
2022-12-26T23:39:57.280Z,2.30
2022-12-26T23:44:59.748Z,2.92
2022-12-26T23:50:02.791Z,2.80
2022-12-26T23:55:06.614Z,2.55
